createdAt,value
2022-10-29T00:00:56.290Z,93.20
2022-10-29T00:03:23.821Z,93.40
2022-10-29T00:06:01.822Z,93.40
2022-10-29T00:08:30.053Z,92.90
2022-10-29T00:11:05.177Z,93.00
2022-10-29T00:13:31.929Z,93.20
2022-10-29T00:15:58.695Z,93.60
2022-10-29T00:18:25.396Z,93.80
2022-10-29T00:21:00.647Z,93.90
2022-10-29T00:23:27.419Z,94.00
2022-10-29T00:25:58.513Z,94.00
2022-10-29T00:28:26.164Z,93.90
2022-10-29T00:30:52.999Z,93.60
2022-10-29T00:36:00.756Z,93.10
2022-10-29T00:38:28.039Z,93.30
2022-10-29T00:40:55.218Z,93.30
2022-10-29T00:43:24.580Z,93.60
2022-10-29T00:46:01.358Z,94.30
2022-10-29T00:48:31.792Z,94.20
2022-10-29T00:51:00.779Z,94.10
2022-10-29T00:53:30.291Z,94.10
2022-10-29T00:55:58.122Z,94.00
2022-10-29T00:58:25.626Z,93.90
2022-10-29T01:00:52.405Z,93.70
2022-10-29T01:03:19.150Z,93.60
2022-10-29T01:05:46.769Z,93.30
2022-10-29T01:08:15.257Z,93.60
2022-10-29T01:11:20.937Z,93.50
2022-10-29T01:13:59.075Z,93.70
2022-10-29T01:16:43.942Z,94.10
2022-10-29T01:19:38.670Z,94.30
2022-10-29T01:22:35.066Z,94.20
2022-10-29T01:25:19.946Z,94.00
2022-10-29T01:28:03.300Z,94.40
2022-10-29T01:30:46.657Z,94.40
2022-10-29T01:33:23.459Z,94.60
2022-10-29T01:36:23.386Z,94.50
2022-10-29T01:39:08.844Z,94.40
2022-10-29T01:41:51.044Z,93.90
2022-10-29T01:44:55.866Z,93.90
2022-10-29T01:47:28.643Z,93.90
2022-10-29T01:50:00.432Z,93.80
2022-10-29T01:52:31.020Z,93.70
2022-10-29T01:54:58.485Z,93.90
2022-10-29T01:57:25.825Z,93.60
2022-10-29T01:59:56.100Z,93.50
2022-10-29T02:02:43.316Z,93.30
2022-10-29T02:05:56.221Z,93.40
2022-10-29T02:08:57.126Z,93.30
2022-10-29T02:11:57.199Z,93.50
2022-10-29T02:14:35.750Z,93.70
2022-10-29T02:17:03.000Z,93.70
2022-10-29T02:19:34.700Z,93.80
2022-10-29T02:22:01.588Z,93.60
2022-10-29T02:24:28.834Z,93.90
2022-10-29T02:26:55.590Z,93.70
2022-10-29T02:29:23.155Z,93.80
2022-10-29T02:31:50.028Z,93.50
2022-10-29T02:34:17.800Z,93.80
2022-10-29T02:36:44.785Z,94.10
2022-10-29T02:39:11.659Z,94.20
2022-10-29T02:41:38.366Z,94.10
2022-10-29T02:44:05.084Z,94.10
2022-10-29T02:46:31.966Z,93.80
2022-10-29T02:48:58.672Z,93.80
2022-10-29T02:51:25.406Z,93.70
2022-10-29T02:53:52.160Z,94.00
2022-10-29T02:56:18.949Z,94.40
2022-10-29T02:58:45.711Z,94.30
2022-10-29T03:01:12.637Z,94.50
2022-10-29T03:03:39.388Z,94.00
2022-10-29T03:06:15.727Z,94.00
2022-10-29T03:08:42.579Z,94.00
2022-10-29T03:11:10.033Z,94.00
2022-10-29T03:16:05.200Z,93.80
2022-10-29T03:18:31.916Z,93.70
2022-10-29T03:20:58.663Z,93.80
2022-10-29T03:23:25.420Z,94.10
2022-10-29T03:25:56.662Z,94.10
2022-10-29T03:28:25.112Z,93.70
2022-10-29T03:30:52.083Z,93.60
2022-10-29T03:33:18.851Z,93.80
2022-10-29T03:35:45.671Z,93.80
2022-10-29T03:38:12.481Z,94.00
2022-10-29T03:40:39.226Z,94.00
2022-10-29T03:43:05.983Z,93.90
2022-10-29T03:45:32.845Z,93.80
2022-10-29T03:47:59.572Z,93.80
2022-10-29T03:50:26.307Z,93.70
2022-10-29T03:52:53.068Z,93.50
2022-10-29T03:55:19.777Z,93.60
2022-10-29T03:57:46.489Z,93.60
2022-10-29T04:00:13.849Z,93.80
2022-10-29T04:02:40.847Z,93.50
2022-10-29T04:05:08.312Z,93.50
2022-10-29T04:07:35.094Z,93.40
2022-10-29T04:10:01.903Z,93.80
2022-10-29T04:12:29.518Z,93.90
2022-10-29T04:14:56.254Z,94.10
2022-10-29T04:17:22.974Z,93.20
2022-10-29T04:19:49.673Z,93.20
2022-10-29T04:24:48.768Z,93.40
2022-10-29T04:28:41.782Z,94.00
2022-10-29T04:30:36.691Z,93.90
2022-10-29T04:33:03.508Z,94.00
2022-10-29T04:35:30.322Z,94.10
2022-10-29T04:37:57.529Z,94.10
2022-10-29T04:40:24.741Z,93.90
2022-10-29T04:42:51.513Z,93.60
2022-10-29T04:45:18.703Z,93.70
2022-10-29T04:47:45.759Z,93.90
2022-10-29T04:50:12.673Z,93.90
2022-10-29T04:52:39.429Z,94.00
2022-10-29T04:55:06.487Z,94.00
2022-10-29T04:57:33.218Z,93.90
2022-10-29T04:59:59.921Z,93.60
2022-10-29T05:02:26.665Z,94.00
2022-10-29T05:04:53.386Z,94.30
2022-10-29T05:07:20.091Z,94.50
2022-10-29T05:09:46.837Z,94.80
2022-10-29T05:12:13.544Z,94.80
2022-10-29T05:14:40.282Z,94.70
2022-10-29T05:19:38.695Z,94.80
2022-10-29T05:22:05.448Z,94.50
2022-10-29T05:24:32.179Z,94.10
2022-10-29T05:26:58.923Z,94.10
2022-10-29T05:29:25.626Z,94.00
2022-10-29T05:31:55.411Z,94.20
2022-10-29T05:34:22.190Z,93.70
2022-10-29T05:36:49.205Z,94.00
2022-10-29T05:39:16.262Z,94.00
2022-10-29T05:41:43.760Z,93.80
2022-10-29T05:44:10.468Z,93.90
2022-10-29T05:46:37.342Z,94.20
2022-10-29T05:49:04.483Z,93.50
2022-10-29T05:51:31.294Z,93.30
2022-10-29T05:53:58.020Z,93.40
2022-10-29T05:56:24.737Z,93.60
2022-10-29T05:58:52.584Z,93.50
2022-10-29T06:01:19.878Z,93.70
2022-10-29T06:03:47.309Z,93.80
2022-10-29T06:06:14.106Z,93.90
2022-10-29T06:08:40.911Z,93.90
2022-10-29T06:11:07.656Z,93.80
2022-10-29T06:13:34.520Z,93.90
2022-10-29T06:16:01.273Z,93.90
2022-10-29T06:18:28.679Z,94.00
2022-10-29T06:20:59.019Z,94.00
2022-10-29T06:23:26.009Z,94.10
2022-10-29T06:25:52.825Z,94.00
2022-10-29T06:28:19.953Z,93.90
2022-10-29T06:30:49.029Z,93.90
2022-10-29T06:33:17.089Z,93.80
2022-10-29T06:35:43.909Z,93.90
2022-10-29T06:38:12.388Z,93.80
2022-10-29T06:40:40.630Z,93.70
2022-10-29T06:43:11.969Z,93.60
2022-10-29T06:45:39.178Z,93.80
2022-10-29T06:48:06.290Z,93.70
2022-10-29T06:50:33.131Z,93.60
2022-10-29T06:53:07.566Z,93.60
2022-10-29T06:55:34.868Z,93.90
2022-10-29T06:58:05.560Z,93.80
2022-10-29T07:00:33.788Z,93.50
2022-10-29T07:03:01.004Z,93.70
2022-10-29T07:05:27.996Z,93.80
2022-10-29T07:07:56.869Z,94.00
2022-10-29T07:10:25.016Z,94.00
2022-10-29T07:12:51.990Z,93.70
2022-10-29T07:15:18.846Z,93.50
2022-10-29T07:18:03.751Z,93.50
2022-10-29T07:20:34.330Z,93.80
2022-10-29T07:23:01.541Z,93.70
2022-10-29T07:25:29.622Z,93.60
2022-10-29T07:28:03.277Z,93.70
2022-10-29T07:30:30.132Z,93.70
2022-10-29T07:32:56.877Z,93.70
2022-10-29T07:35:23.965Z,93.40
2022-10-29T07:37:50.725Z,93.60
2022-10-29T07:40:17.554Z,93.40
2022-10-29T07:42:44.260Z,93.50
2022-10-29T07:45:11.077Z,93.50
2022-10-29T07:47:38.061Z,93.40
2022-10-29T07:50:05.108Z,93.00
2022-10-29T07:52:31.949Z,92.70
2022-10-29T07:55:01.384Z,92.00
2022-10-29T07:57:28.841Z,92.10
2022-10-29T07:59:56.513Z,92.40
2022-10-29T08:02:23.413Z,92.10
2022-10-29T08:04:50.139Z,92.10
2022-10-29T08:07:16.957Z,92.10
2022-10-29T08:09:43.671Z,91.90
2022-10-29T08:12:11.313Z,91.80
2022-10-29T08:14:38.082Z,91.90
2022-10-29T08:17:04.812Z,92.00
2022-10-29T08:19:31.519Z,91.90
2022-10-29T08:21:58.322Z,91.40
2022-10-29T08:24:25.191Z,91.00
2022-10-29T08:26:52.089Z,91.50
2022-10-29T08:29:18.881Z,91.20
2022-10-29T08:31:45.689Z,91.20
2022-10-29T08:34:12.668Z,91.70
2022-10-29T08:36:40.863Z,91.70
2022-10-29T08:39:07.829Z,91.70
2022-10-29T08:42:04.067Z,92.00
2022-10-29T08:44:51.468Z,91.90
2022-10-29T08:47:21.201Z,92.30
2022-10-29T08:49:54.765Z,92.30
2022-10-29T08:52:26.458Z,92.10
2022-10-29T08:55:13.106Z,92.20
2022-10-29T08:57:44.952Z,92.20
2022-10-29T09:00:15.814Z,92.20
2022-10-29T09:02:42.597Z,92.20
2022-10-29T09:05:24.868Z,92.20
2022-10-29T09:08:05.872Z,91.90
2022-10-29T09:10:51.205Z,91.60
2022-10-29T09:13:42.592Z,91.00
2022-10-29T09:16:21.520Z,90.90
2022-10-29T09:19:10.994Z,90.50
2022-10-29T09:22:29.168Z,90.80
2022-10-29T09:25:17.799Z,90.20
2022-10-29T09:28:00.697Z,90.20
2022-10-29T09:30:31.306Z,89.90
2022-10-29T09:33:08.675Z,89.50
2022-10-29T09:35:57.188Z,90.00
2022-10-29T09:38:30.424Z,89.40
2022-10-29T09:41:01.021Z,89.30
2022-10-29T09:43:42.862Z,88.80
2022-10-29T09:46:38.828Z,89.00
2022-10-29T09:49:24.121Z,89.30
2022-10-29T09:52:08.456Z,89.20
2022-10-29T09:54:35.607Z,88.90
2022-10-29T09:57:05.411Z,89.10
2022-10-29T09:59:35.110Z,88.60
2022-10-29T10:02:02.765Z,88.20
2022-10-29T10:04:36.126Z,87.70
2022-10-29T10:07:07.299Z,87.50
2022-10-29T10:10:01.577Z,87.50
2022-10-29T10:12:45.389Z,87.00
2022-10-29T10:15:26.894Z,87.10
2022-10-29T10:18:04.347Z,86.30
2022-10-29T10:20:38.777Z,84.60
2022-10-29T10:23:53.752Z,85.30
2022-10-29T10:26:26.620Z,83.40
2022-10-29T10:29:17.313Z,82.70
2022-10-29T10:32:10.056Z,82.20
2022-10-29T10:34:39.118Z,81.20
2022-10-29T10:37:07.486Z,80.20
2022-10-29T10:39:39.732Z,80.00
2022-10-29T10:42:22.394Z,79.80
2022-10-29T10:44:58.790Z,79.50
2022-10-29T10:47:28.867Z,79.00
2022-10-29T10:50:22.727Z,78.20
2022-10-29T10:52:50.095Z,77.00
2022-10-29T10:55:31.705Z,76.60
2022-10-29T10:58:16.327Z,76.20
2022-10-29T11:01:10.034Z,77.30
2022-10-29T11:03:48.754Z,74.80
2022-10-29T11:06:23.325Z,74.40
2022-10-29T11:09:03.048Z,73.60
2022-10-29T11:11:41.848Z,72.40
2022-10-29T11:14:22.325Z,74.10
2022-10-29T11:16:55.624Z,71.70
2022-10-29T11:19:34.197Z,72.00
2022-10-29T11:22:26.016Z,72.50
2022-10-29T11:25:10.438Z,71.50
2022-10-29T11:27:54.877Z,74.00
2022-10-29T11:30:22.150Z,71.10
2022-10-29T11:33:11.393Z,71.60
2022-10-29T11:35:38.241Z,70.20
2022-10-29T11:38:18.489Z,71.00
2022-10-29T11:41:07.496Z,69.90
2022-10-29T11:43:34.377Z,72.10
2022-10-29T11:46:01.715Z,70.70
2022-10-29T11:48:52.019Z,68.30
2022-10-29T11:51:24.606Z,67.50
2022-10-29T11:54:18.651Z,68.00
2022-10-29T11:56:52.719Z,65.70
2022-10-29T12:00:02.692Z,68.50
2022-10-29T12:02:48.147Z,67.30
2022-10-29T12:05:36.598Z,67.70
2022-10-29T12:08:12.240Z,65.30
2022-10-29T12:10:49.225Z,64.50
2022-10-29T12:13:34.426Z,63.80
2022-10-29T12:16:35.123Z,64.80
2022-10-29T12:19:20.120Z,63.60
2022-10-29T12:22:01.536Z,60.20
2022-10-29T12:24:59.306Z,60.60
2022-10-29T12:27:50.285Z,62.80
2022-10-29T12:30:19.025Z,62.10
2022-10-29T12:32:59.516Z,59.70
2022-10-29T12:36:03.732Z,58.30
2022-10-29T12:38:41.662Z,57.70
2022-10-29T12:41:40.323Z,56.40
2022-10-29T12:44:15.981Z,54.70
2022-10-29T12:47:10.437Z,53.30
2022-10-29T12:49:55.102Z,50.10
2022-10-29T12:52:42.525Z,52.50
2022-10-29T12:55:12.326Z,52.00
2022-10-29T12:57:39.540Z,50.10
2022-10-29T13:00:24.268Z,47.70
2022-10-29T13:02:52.410Z,48.20
2022-10-29T13:05:45.163Z,48.70
2022-10-29T13:08:21.337Z,49.50
2022-10-29T13:10:50.072Z,46.80
2022-10-29T13:13:17.837Z,46.40
2022-10-29T13:16:03.549Z,47.60
2022-10-29T13:18:41.759Z,44.70
2022-10-29T13:21:09.190Z,47.00
2022-10-29T13:23:37.543Z,46.00
2022-10-29T13:26:06.793Z,46.50
2022-10-29T13:28:36.664Z,45.20
2022-10-29T13:31:06.106Z,44.80
2022-10-29T13:33:32.794Z,47.90
2022-10-29T13:36:04.245Z,48.50
2022-10-29T13:39:05.682Z,45.70
2022-10-29T13:41:41.995Z,46.40
2022-10-29T13:44:26.091Z,46.30
2022-10-29T13:46:55.739Z,45.60
2022-10-29T13:49:24.874Z,46.50
2022-10-29T13:52:05.112Z,49.30
2022-10-29T13:54:49.464Z,47.90
2022-10-29T13:57:22.713Z,51.50
2022-10-29T14:00:04.462Z,49.00
2022-10-29T14:02:42.773Z,49.90
2022-10-29T14:05:20.455Z,49.80
2022-10-29T14:08:06.215Z,50.40
2022-10-29T14:10:45.715Z,51.00
2022-10-29T14:13:29.697Z,52.70
2022-10-29T14:16:05.685Z,55.40
2022-10-29T14:18:35.633Z,54.70
2022-10-29T14:21:04.354Z,53.40
2022-10-29T14:23:32.488Z,54.80
2022-10-29T14:26:01.444Z,52.30
2022-10-29T14:28:32.663Z,54.80
2022-10-29T14:31:15.227Z,52.60
2022-10-29T14:33:51.801Z,52.80
2022-10-29T14:36:35.968Z,53.80
2022-10-29T14:39:13.187Z,55.40
2022-10-29T14:41:40.289Z,56.20
2022-10-29T14:44:17.546Z,58.90
2022-10-29T14:47:02.753Z,58.70
2022-10-29T14:49:30.775Z,59.80
2022-10-29T14:52:02.087Z,60.70
2022-10-29T14:54:49.638Z,60.50
2022-10-29T14:57:19.277Z,62.20
2022-10-29T14:59:59.122Z,63.20
2022-10-29T15:02:38.138Z,64.50
2022-10-29T15:05:24.722Z,65.30
2022-10-29T15:07:52.092Z,65.70
2022-10-29T15:10:20.886Z,65.90
2022-10-29T15:12:48.544Z,66.30
2022-10-29T15:15:18.784Z,66.80
2022-10-29T15:17:54.278Z,67.00
2022-10-29T15:20:36.457Z,68.00
2022-10-29T15:23:03.833Z,67.90
2022-10-29T15:25:35.730Z,68.70
2022-10-29T15:28:02.985Z,69.50
2022-10-29T15:30:39.441Z,70.00
2022-10-29T15:33:13.507Z,70.00
2022-10-29T15:35:51.787Z,71.10
2022-10-29T15:38:30.809Z,72.80
2022-10-29T15:41:20.124Z,74.10
2022-10-29T15:43:55.338Z,75.80
2022-10-29T15:46:26.399Z,76.60
2022-10-29T15:48:53.368Z,76.80
2022-10-29T15:51:28.280Z,76.80
2022-10-29T15:53:56.521Z,76.80
2022-10-29T15:56:24.285Z,76.60
2022-10-29T15:58:52.404Z,76.90
2022-10-29T16:01:19.298Z,76.90
2022-10-29T16:03:46.127Z,77.90
2022-10-29T16:06:15.538Z,78.50
2022-10-29T16:08:49.069Z,79.40
2022-10-29T16:11:17.713Z,78.40
2022-10-29T16:13:44.631Z,78.60
2022-10-29T16:16:14.464Z,78.70
2022-10-29T16:18:41.201Z,78.90
2022-10-29T16:21:07.900Z,79.40
2022-10-29T16:23:37.639Z,79.50
2022-10-29T16:26:04.842Z,80.60
2022-10-29T16:28:31.581Z,80.70
2022-10-29T16:30:59.674Z,80.80
2022-10-29T16:33:26.931Z,81.40
2022-10-29T16:35:53.664Z,81.10
2022-10-29T16:38:20.359Z,81.70
2022-10-29T16:40:47.090Z,82.30
2022-10-29T16:43:13.825Z,82.30
2022-10-29T16:45:40.704Z,83.10
2022-10-29T16:48:12.144Z,84.00
2022-10-29T16:50:39.012Z,84.20
2022-10-29T16:53:08.817Z,84.10
2022-10-29T16:55:37.802Z,84.30
2022-10-29T16:58:06.782Z,84.70
2022-10-29T17:00:36.323Z,84.40
2022-10-29T17:03:06.856Z,84.70
2022-10-29T17:05:40.120Z,85.00
2022-10-29T17:08:07.565Z,85.30
2022-10-29T17:10:35.645Z,85.50
2022-10-29T17:13:02.537Z,85.80
2022-10-29T17:15:29.684Z,86.00
2022-10-29T17:17:56.970Z,86.10
2022-10-29T17:20:23.974Z,86.00
2022-10-29T17:22:52.811Z,85.90
2022-10-29T17:25:19.572Z,85.50
2022-10-29T17:27:46.303Z,85.90
2022-10-29T17:30:13.129Z,86.10
2022-10-29T17:32:39.922Z,87.40
2022-10-29T17:35:06.910Z,87.80
2022-10-29T17:37:34.441Z,88.50
2022-10-29T17:40:04.794Z,88.70
2022-10-29T17:42:34.250Z,88.30
2022-10-29T17:45:00.970Z,88.50
2022-10-29T17:47:27.798Z,88.90
2022-10-29T17:49:54.729Z,89.30
2022-10-29T17:52:22.316Z,89.10
2022-10-29T17:54:49.028Z,89.60
2022-10-29T17:57:15.735Z,89.50
2022-10-29T17:59:43.996Z,89.50
2022-10-29T18:02:11.727Z,89.60
2022-10-29T18:04:41.197Z,89.40
2022-10-29T18:07:07.940Z,89.60
2022-10-29T18:09:34.715Z,89.60
2022-10-29T18:12:01.432Z,89.90
2022-10-29T18:14:28.256Z,89.80
2022-10-29T18:16:58.309Z,89.80
2022-10-29T18:19:25.099Z,90.20
2022-10-29T18:21:52.009Z,90.30
2022-10-29T18:24:19.389Z,90.30
2022-10-29T18:26:50.133Z,89.90
2022-10-29T18:29:17.000Z,90.00
2022-10-29T18:31:46.804Z,90.30
2022-10-29T18:34:15.156Z,90.20
2022-10-29T18:36:42.888Z,90.30
2022-10-29T18:39:09.730Z,90.50
2022-10-29T18:41:36.552Z,90.40
2022-10-29T18:44:03.609Z,90.10
2022-10-29T18:46:30.391Z,90.30
2022-10-29T18:48:57.715Z,89.90
2022-10-29T18:51:30.387Z,90.00
2022-10-29T18:53:58.290Z,89.80
2022-10-29T18:56:27.090Z,90.00
2022-10-29T18:58:55.585Z,90.10
2022-10-29T19:01:25.663Z,90.30
2022-10-29T19:03:58.205Z,90.70
2022-10-29T19:06:28.242Z,90.90
2022-10-29T19:08:55.338Z,91.30
2022-10-29T19:11:26.483Z,91.80
2022-10-29T19:13:54.811Z,91.80
2022-10-29T19:16:21.920Z,92.10
2022-10-29T19:18:53.563Z,91.80
2022-10-29T19:21:20.554Z,92.10
2022-10-29T19:23:47.451Z,92.00
2022-10-29T19:26:17.187Z,92.00
2022-10-29T19:28:47.011Z,91.90
2022-10-29T19:31:17.483Z,91.60
2022-10-29T19:33:49.795Z,91.90
2022-10-29T19:36:17.118Z,91.80
2022-10-29T19:38:44.230Z,91.60
2022-10-29T19:41:12.269Z,91.30
2022-10-29T19:43:40.722Z,90.90
2022-10-29T19:46:09.231Z,90.80
2022-10-29T19:48:36.536Z,90.90
2022-10-29T19:51:03.529Z,90.90
2022-10-29T19:53:31.179Z,91.40
2022-10-29T19:55:58.595Z,91.50
2022-10-29T19:58:27.327Z,91.90
2022-10-29T20:00:54.868Z,92.10
2022-10-29T20:03:21.735Z,91.50
2022-10-29T20:05:49.567Z,91.80
2022-10-29T20:08:16.705Z,91.50
2022-10-29T20:10:43.983Z,91.40
2022-10-29T20:13:12.232Z,91.40
2022-10-29T20:15:40.040Z,91.90
2022-10-29T20:18:07.009Z,92.10
2022-10-29T20:20:33.901Z,91.70
2022-10-29T20:23:01.280Z,91.10
2022-10-29T20:25:28.558Z,92.10
2022-10-29T20:27:57.950Z,92.10
2022-10-29T20:30:24.783Z,92.20
2022-10-29T20:32:51.694Z,92.60
2022-10-29T20:35:20.582Z,92.30
2022-10-29T20:37:47.767Z,92.20
2022-10-29T20:40:14.885Z,92.30
2022-10-29T20:42:41.727Z,92.30
2022-10-29T20:45:08.717Z,92.50
2022-10-29T20:47:35.434Z,92.70
2022-10-29T20:50:02.263Z,92.40
2022-10-29T20:52:30.367Z,92.40
2022-10-29T20:54:57.105Z,91.60
2022-10-29T20:57:23.853Z,91.80
2022-10-29T20:59:50.958Z,92.10
2022-10-29T21:02:17.810Z,91.90
2022-10-29T21:04:44.661Z,92.10
2022-10-29T21:07:11.566Z,92.00
2022-10-29T21:09:40.231Z,91.80
2022-10-29T21:12:07.925Z,91.70
2022-10-29T21:14:36.023Z,91.90
2022-10-29T21:17:02.800Z,91.80
2022-10-29T21:19:29.824Z,91.90
2022-10-29T21:21:57.858Z,91.60
2022-10-29T21:24:24.627Z,91.70
2022-10-29T21:26:51.349Z,91.20
2022-10-29T21:29:19.099Z,91.40
2022-10-29T21:31:49.658Z,92.00
2022-10-29T21:34:17.294Z,92.60
2022-10-29T21:36:44.621Z,92.80
2022-10-29T21:39:11.549Z,93.10
2022-10-29T21:41:38.285Z,92.80
2022-10-29T21:44:08.350Z,92.60
2022-10-29T21:46:36.210Z,92.70
2022-10-29T21:49:03.225Z,92.60
2022-10-29T21:51:30.444Z,92.60
2022-10-29T21:53:57.308Z,92.50
2022-10-29T21:56:24.444Z,92.90
2022-10-29T21:58:54.872Z,93.20
2022-10-29T22:01:21.841Z,93.30
2022-10-29T22:03:48.709Z,93.10
2022-10-29T22:06:21.400Z,93.00
2022-10-29T22:08:53.418Z,93.30
2022-10-29T22:11:20.261Z,93.60
2022-10-29T22:13:47.089Z,93.60
2022-10-29T22:16:13.891Z,93.70
2022-10-29T22:18:40.841Z,93.90
2022-10-29T22:21:17.990Z,93.70
2022-10-29T22:23:46.898Z,93.40
2022-10-29T22:26:15.750Z,93.10
2022-10-29T22:28:42.505Z,92.90
2022-10-29T22:31:09.627Z,92.90
2022-10-29T22:33:36.703Z,93.00
2022-10-29T22:36:09.729Z,92.60
2022-10-29T22:38:36.802Z,92.70
2022-10-29T22:41:14.573Z,92.80
2022-10-29T22:43:41.933Z,92.90
2022-10-29T22:46:09.846Z,92.90
2022-10-29T22:48:36.770Z,92.90
2022-10-29T22:51:04.865Z,92.70
2022-10-29T22:53:32.821Z,92.80
2022-10-29T22:56:00.115Z,92.90
2022-10-29T22:58:27.013Z,92.60
2022-10-29T23:01:04.379Z,92.80
2022-10-29T23:03:31.458Z,93.20
2022-10-29T23:05:59.863Z,93.30
2022-10-29T23:08:26.883Z,93.40
2022-10-29T23:10:53.617Z,93.60
2022-10-29T23:13:20.773Z,93.50
2022-10-29T23:15:48.523Z,93.40
2022-10-29T23:18:15.381Z,93.80
2022-10-29T23:20:42.442Z,93.90
2022-10-29T23:23:09.403Z,93.80
2022-10-29T23:25:36.391Z,93.70
2022-10-29T23:28:03.132Z,93.50
2022-10-29T23:30:29.869Z,93.20
2022-10-29T23:32:56.779Z,93.50
2022-10-29T23:35:23.652Z,93.50
2022-10-29T23:37:50.630Z,93.40
2022-10-29T23:40:17.432Z,93.30
2022-10-29T23:42:44.148Z,93.50
2022-10-29T23:45:13.768Z,93.50
2022-10-29T23:47:40.605Z,93.40
2022-10-29T23:50:07.933Z,93.40
2022-10-29T23:52:34.651Z,93.40
2022-10-29T23:55:01.369Z,93.20
2022-10-29T23:57:28.420Z,93.20
2022-10-29T23:59:55.111Z,93.10
